Celebrity Century — 9HJI9 — position and weather

sailwx.info

Track history (hours):
 
Tides and Currents Weather Stations Pressure Air Temp Water Temp Dewpoint Dewpoint Depression Visibility Wind Speed Wind Dir Waves Ship Positions

Celebrity Century

Last reported at 2017-May-25 02:04 UTC. Time now 2017-May-25 02:57 UTC.
Position N 31°25' E 121°30'.

Length 252 m; draft 8 m.

Type: Ship. MMSI: 249054000.

Date/timePositionNaut miles runAvg speedWind from/ knotsBaromVisibWave heightAir tempDewpointWater temp
2017-May-25 02:04N 31°25' E 121°30'0 0.0
2017-May-25 01:46N 31°25' E 121°30'0 0.0
2017-May-25 01:28N 31°25' E 121°30'0 0.0
2017-May-25 00:55N 31°25' E 121°30'0 0.0
2017-May-25 00:22N 31°25' E 121°30'0 0.0
2017-May-24 23:55N 31°25' E 121°30'0 0.0
2017-May-24 23:31N 31°25' E 121°30'2 3.7
2017-May-24 23:01N 31°24' E 121°32'611.1
2017-May-24 22:31N 31°22' E 121°38'611.8
2017-May-24 22:00N 31°19' E 121°44'713.3
2017-May-24 21:31N 31°16' E 121°51'612.6
2017-May-24 21:00N 31°15' E 121°59'611.7
2017-May-24 20:31N 31°14' E 122°05'510.8
2017-May-24 20:01N 31°11' E 122°11'5 9.6
2017-May-24 19:30N 31°08' E 122°15'510.6
2017-May-24 19:00N 31°06' E 122°21'5 9.9
2017-May-24 18:30N 31°07' E 122°27'510.0
2017-May-24 17:58N 31°07' E 122°33'  
2017-May-21 10:20N 31°22' E 121°37'3 8.4
2017-May-21 10:00N 31°24' E 121°34'3 6.6
2017-May-21 09:30N 31°25' E 121°30'0 0.2
2017-May-21 08:56N 31°25' E 121°30'0 0.0
2017-May-21 08:26N 31°25' E 121°30'0 0.0
2017-May-21 07:56N 31°25' E 121°30'0 0.0
2017-May-21 07:26N 31°25' E 121°30'0 0.0
2017-May-21 06:50N 31°25' E 121°30'0 0.0
2017-May-21 06:29N 31°25' E 121°30'0 0.0
2017-May-21 05:59N 31°25' E 121°30'0 0.0
2017-May-21 05:26N 31°25' E 121°30'0 0.0
2017-May-21 04:59N 31°25' E 121°30'0 0.0
2017-May-21 04:29N 31°25' E 121°30'0 0.0
2017-May-21 03:59N 31°25' E 121°30'0 0.0
2017-May-21 03:29N 31°25' E 121°30'0 0.0
2017-May-21 02:59N 31°25' E 121°30'0 0.0
2017-May-21 02:29N 31°25' E 121°30'0 0.0
2017-May-21 01:59N 31°25' E 121°30'0 0.0
2017-May-21 01:29N 31°25' E 121°30'0 0.0
2017-May-21 00:59N 31°25' E 121°30'0 0.0
2017-May-21 00:26N 31°25' E 121°30'0 0.0
2017-May-20 23:59N 31°25' E 121°30'0 0.2
2017-May-20 23:30N 31°25' E 121°30'4 9.0
2017-May-20 23:00N 31°23' E 121°35'611.9
2017-May-20 22:30N 31°20' E 121°41'510.7
2017-May-20 22:00N 31°18' E 121°47'5 9.9
2017-May-20 21:30N 31°16' E 121°52'510.0
2017-May-20 21:00N 31°15' E 121°58'5 9.8
2017-May-20 20:31N 31°14' E 122°04'5 9.4
2017-May-20 20:01N 31°12' E 122°09'5 9.6
2017-May-20 19:30N 31°09' E 122°13'5 9.6
2017-May-20 19:01N 31°07' E 122°18'611.5
2017-May-20 18:30N 31°06' E 122°25'611.6
2017-May-20 17:59N 31°07' E 122°32'712.8
2017-May-20 17:28N 31°07' E 122°39'713.5
2017-May-20 16:57N 31°08' E 122°47'613.6
2017-May-20 16:29N 31°10' E 122°54'713.4
2017-May-20 15:59N 31°12' E 123°02'  
2017-May-17 18:43N 31°27' E 124°01'412.2
2017-May-17 18:25N 31°26' E 123°57'512.3
2017-May-17 17:58N 31°24' E 123°51'812.1
2017-May-17 17:21N 31°22' E 123°42'412.3
2017-May-17 17:00N 31°21' E 123°37'812.6
2017-May-17 16:21N 31°19' E 123°28'412.4
2017-May-17 16:00N 31°17' E 123°24'612.2
2017-May-17 15:30N 31°15' E 123°17'612.7
2017-May-17 15:00N 31°13' E 123°10'1312.6
2017-May-17 14:00N 31°08' E 122°56'612.7
2017-May-17 13:30N 31°06' E 122°49'713.3
2017-May-17 13:00N 31°05' E 122°42'713.3
2017-May-17 12:30N 31°05' E 122°34'611.9
2017-May-17 12:00N 31°05' E 122°27'510.1
2017-May-17 11:30N 31°06' E 122°21'612.5
2017-May-17 11:00N 31°09' E 122°14'613.2
2017-May-17 10:31N 31°12' E 122°08'714.5
2017-May-17 10:01N 31°15' E 122°00'714.8
2017-May-17 09:30N 31°16' E 121°52'713.9
2017-May-17 09:00N 31°19' E 121°44'612.0
2017-May-17 08:31N 31°22' E 121°38'611.7
2017-May-17 08:00N 31°25' E 121°32'2 0.2
2017-May-16 23:52N 31°25' E 121°30'0 0.0
2017-May-16 23:30N 31°25' E 121°30'3 6.0
2017-May-16 23:00N 31°24' E 121°33'611.5
2017-May-16 22:30N 31°21' E 121°39'611.7
2017-May-16 22:00N 31°19' E 121°45'510.0
2017-May-16 21:30N 31°17' E 121°51'510.2
2017-May-16 21:00N 31°15' E 121°57'510.3
2017-May-16 20:30N 31°14' E 122°03'510.5
2017-May-16 20:00N 31°12' E 122°08'611.3
2017-May-16 19:30N 31°09' E 122°14'611.0
2017-May-16 18:59N 31°06' E 122°19'612.2
2017-May-16 18:30N 31°07' E 122°26'4 8.6
2017-May-16 18:00N 31°08' E 122°31'611.0
2017-May-16 17:30N 31°07' E 122°37'612.4
2017-May-16 16:59N 31°07' E 122°45'612.9
2017-May-16 16:30N 31°10' E 122°51'611.7
2017-May-16 16:00N 31°13' E 122°57'612.3
2017-May-16 15:30N 31°15' E 123°04'612.4
2017-May-16 15:00N 31°17' E 123°11'612.6
2017-May-16 14:30N 31°19' E 123°18'1412.5
2017-May-16 13:22N 31°24' E 123°33'512.9
2017-May-16 12:59N 31°26' E 123°39'712.7
2017-May-16 12:26N 31°28' E 123°46'6013.7
2017-May-16 08:05N 31°48' E 124°53'213.8
2017-May-16 07:55N 31°49' E 124°55'612.9
2017-May-16 07:28N 31°50' E 125°02'612.6
2017-May-16 07:00N 31°52' E 125°08'  
Track history (hours):
 
Tides and Currents Weather Stations Pressure Air Temp Water Temp Dewpoint Dewpoint Depression Visibility Wind Speed Wind Dir Waves Ship Positions

Celebrity Century

Last reported at 2017-May-25 02:04 UTC. Time now 2017-May-25 02:57 UTC.
Position N 31°25' E 121°30'.

Length 252 m; draft 8 m.

Type: Ship. MMSI: 249054000.

Date/timePositionNaut miles runAvg speedWind from/ knotsBaromVisibWave heightAir tempDewpointWater temp
2017-May-25 02:04N 31°25' E 121°30'0 0.0
2017-May-25 01:46N 31°25' E 121°30'0 0.0
2017-May-25 01:28N 31°25' E 121°30'0 0.0
2017-May-25 00:55N 31°25' E 121°30'0 0.0
2017-May-25 00:22N 31°25' E 121°30'0 0.0
2017-May-24 23:55N 31°25' E 121°30'0 0.0
2017-May-24 23:31N 31°25' E 121°30'2 3.7
2017-May-24 23:01N 31°24' E 121°32'611.1
2017-May-24 22:31N 31°22' E 121°38'611.8
2017-May-24 22:00N 31°19' E 121°44'713.3
2017-May-24 21:31N 31°16' E 121°51'612.6
2017-May-24 21:00N 31°15' E 121°59'611.7
2017-May-24 20:31N 31°14' E 122°05'510.8
2017-May-24 20:01N 31°11' E 122°11'5 9.6
2017-May-24 19:30N 31°08' E 122°15'510.6
2017-May-24 19:00N 31°06' E 122°21'5 9.9
2017-May-24 18:30N 31°07' E 122°27'510.0
2017-May-24 17:58N 31°07' E 122°33'  
2017-May-21 10:20N 31°22' E 121°37'3 8.4
2017-May-21 10:00N 31°24' E 121°34'3 6.6
2017-May-21 09:30N 31°25' E 121°30'0 0.2
2017-May-21 08:56N 31°25' E 121°30'0 0.0
2017-May-21 08:26N 31°25' E 121°30'0 0.0
2017-May-21 07:56N 31°25' E 121°30'0 0.0
2017-May-21 07:26N 31°25' E 121°30'0 0.0
2017-May-21 06:50N 31°25' E 121°30'0 0.0
2017-May-21 06:29N 31°25' E 121°30'0 0.0
2017-May-21 05:59N 31°25' E 121°30'0 0.0
2017-May-21 05:26N 31°25' E 121°30'0 0.0
2017-May-21 04:59N 31°25' E 121°30'0 0.0
2017-May-21 04:29N 31°25' E 121°30'0 0.0
2017-May-21 03:59N 31°25' E 121°30'0 0.0
2017-May-21 03:29N 31°25' E 121°30'0 0.0
2017-May-21 02:59N 31°25' E 121°30'0 0.0
2017-May-21 02:29N 31°25' E 121°30'0 0.0
2017-May-21 01:59N 31°25' E 121°30'0 0.0
2017-May-21 01:29N 31°25' E 121°30'0 0.0
2017-May-21 00:59N 31°25' E 121°30'0 0.0
2017-May-21 00:26N 31°25' E 121°30'0 0.0
2017-May-20 23:59N 31°25' E 121°30'0 0.2
2017-May-20 23:30N 31°25' E 121°30'4 9.0
2017-May-20 23:00N 31°23' E 121°35'611.9
2017-May-20 22:30N 31°20' E 121°41'510.7
2017-May-20 22:00N 31°18' E 121°47'5 9.9
2017-May-20 21:30N 31°16' E 121°52'510.0
2017-May-20 21:00N 31°15' E 121°58'5 9.8
2017-May-20 20:31N 31°14' E 122°04'5 9.4
2017-May-20 20:01N 31°12' E 122°09'5 9.6
2017-May-20 19:30N 31°09' E 122°13'5 9.6
2017-May-20 19:01N 31°07' E 122°18'611.5
2017-May-20 18:30N 31°06' E 122°25'611.6
2017-May-20 17:59N 31°07' E 122°32'712.8
2017-May-20 17:28N 31°07' E 122°39'713.5
2017-May-20 16:57N 31°08' E 122°47'613.6
2017-May-20 16:29N 31°10' E 122°54'713.4
2017-May-20 15:59N 31°12' E 123°02'  
2017-May-17 18:43N 31°27' E 124°01'412.2
2017-May-17 18:25N 31°26' E 123°57'512.3
2017-May-17 17:58N 31°24' E 123°51'812.1
2017-May-17 17:21N 31°22' E 123°42'412.3
2017-May-17 17:00N 31°21' E 123°37'812.6
2017-May-17 16:21N 31°19' E 123°28'412.4
2017-May-17 16:00N 31°17' E 123°24'612.2
2017-May-17 15:30N 31°15' E 123°17'612.7
2017-May-17 15:00N 31°13' E 123°10'1312.6
2017-May-17 14:00N 31°08' E 122°56'612.7
2017-May-17 13:30N 31°06' E 122°49'713.3
2017-May-17 13:00N 31°05' E 122°42'713.3
2017-May-17 12:30N 31°05' E 122°34'611.9
2017-May-17 12:00N 31°05' E 122°27'510.1
2017-May-17 11:30N 31°06' E 122°21'612.5
2017-May-17 11:00N 31°09' E 122°14'613.2
2017-May-17 10:31N 31°12' E 122°08'714.5
2017-May-17 10:01N 31°15' E 122°00'714.8
2017-May-17 09:30N 31°16' E 121°52'713.9
2017-May-17 09:00N 31°19' E 121°44'612.0
2017-May-17 08:31N 31°22' E 121°38'611.7
2017-May-17 08:00N 31°25' E 121°32'2 0.2
2017-May-16 23:52N 31°25' E 121°30'0 0.0
2017-May-16 23:30N 31°25' E 121°30'3 6.0
2017-May-16 23:00N 31°24' E 121°33'611.5
2017-May-16 22:30N 31°21' E 121°39'611.7
2017-May-16 22:00N 31°19' E 121°45'510.0
2017-May-16 21:30N 31°17' E 121°51'510.2
2017-May-16 21:00N 31°15' E 121°57'510.3
2017-May-16 20:30N 31°14' E 122°03'510.5
2017-May-16 20:00N 31°12' E 122°08'611.3
2017-May-16 19:30N 31°09' E 122°14'611.0
2017-May-16 18:59N 31°06' E 122°19'612.2
2017-May-16 18:30N 31°07' E 122°26'4 8.6
2017-May-16 18:00N 31°08' E 122°31'611.0
2017-May-16 17:30N 31°07' E 122°37'612.4
2017-May-16 16:59N 31°07' E 122°45'612.9
2017-May-16 16:30N 31°10' E 122°51'611.7
2017-May-16 16:00N 31°13' E 122°57'612.3
2017-May-16 15:30N 31°15' E 123°04'612.4
2017-May-16 15:00N 31°17' E 123°11'612.6
2017-May-16 14:30N 31°19' E 123°18'1412.5
2017-May-16 13:22N 31°24' E 123°33'512.9
2017-May-16 12:59N 31°26' E 123°39'712.7
2017-May-16 12:26N 31°28' E 123°46'6013.7
2017-May-16 08:05N 31°48' E 124°53'213.8
2017-May-16 07:55N 31°49' E 124°55'612.9
2017-May-16 07:28N 31°50' E 125°02'612.6
2017-May-16 07:00N 31°52' E 125°08'  

Dump ship's entire track history